Terminal Aerodrome Forecast
Issued by NWS

Home | Current Version | Previous Version | Text Only | Print | Product List | Glossary On
Versions: 1 2 3 4 5 6 7 8 9 10 11 12 13 14 15 16 17 18 19 20 21 22 23 24 25 26 27 28 29 30 31
000
FTUS43 KGRB 202100 AAB
TAFAUW
TAF AMD
KAUW 202131Z 2022/2118 VRB03KT P6SM BKN035
      TEMPO 2023/2103 SCT035
     FM210300 15003KT 5SM BR SCT040 SCT070
     FM210900 11003KT 3SM BR SCT040 BKN070 PROB30 2109/2114 -SHRA
     FM211400 13006KT 6SM BR BKN040
      TEMPO 2114/2118 3SM TSRA BR OVC025CB=

USA.gov is the U.S. government's official web portal to all federal, state and local government web resources and services.